Time;durP1;ratioP1;P1;durP2;ratioP2;P2;SDS_P1;SDS_P2;PMS_P1;PMS_P2;Temp;Humidity;BMP_temperature;BMP_pressure;BME280_temperature;BME280_humidity;BME280_pressure;Samples;Min_cycle;Max_cycle;Signal;HPM_P1;HPM_P2
2023/10/20 00:00:15;;;;;;;10.48;9.57;;;14.70;99.90;;;;;;5043369;28;20429;-72
2023/10/20 00:02:43;;;;;;;10.30;9.40;;;14.70;99.90;;;;;;5044886;28;20492;-72
2023/10/20 00:05:10;;;;;;;10.40;9.50;;;14.70;99.90;;;;;;5043970;28;20429;-72
2023/10/20 00:07:36;;;;;;;10.82;9.93;;;14.70;99.90;;;;;;5044248;28;20429;-71
2023/10/20 00:10:03;;;;;;;10.60;9.70;;;14.70;99.90;;;;;;5044066;28;20429;-69
2023/10/20 00:12:32;;;;;;;10.93;9.93;;;14.80;99.90;;;;;;5044124;28;20425;-72
2023/10/20 00:14:59;;;;;;;10.85;9.85;;;14.80;99.90;;;;;;5042592;28;20918;-72
2023/10/20 00:17:25;;;;;;;11.38;10.48;;;14.80;99.90;;;;;;5045122;28;20440;-71
2023/10/20 00:19:53;;;;;;;11.20;10.20;;;14.80;99.90;;;;;;5043228;28;20429;-71
2023/10/20 00:22:20;;;;;;;11.43;10.32;;;14.80;99.90;;;;;;5046613;28;20421;-71
2023/10/20 00:24:46;;;;;;;11.70;10.70;;;14.80;99.90;;;;;;5044739;28;20520;-71
2023/10/20 00:27:14;;;;;;;12.55;11.45;;;14.80;99.90;;;;;;5043790;28;20429;-72
2023/10/20 00:29:42;;;;;;;11.60;10.60;;;14.70;99.90;;;;;;5043816;28;20444;-72
2023/10/20 00:32:10;;;;;;;12.15;11.15;;;14.80;99.90;;;;;;5043410;28;20540;-71
2023/10/20 00:34:37;;;;;;;12.40;11.40;;;14.80;99.90;;;;;;5044511;28;20428;-71
2023/10/20 00:37:04;;;;;;;12.32;11.23;;;14.70;99.90;;;;;;5036487;28;20532;-71
2023/10/20 00:39:31;;;;;;;12.13;11.13;;;14.70;99.90;;;;;;5044258;28;20465;-71
2023/10/20 00:41:57;;;;;;;12.15;11.15;;;14.80;99.90;;;;;;5041840;28;20521;-71
2023/10/20 00:44:24;;;;;;;11.70;10.70;;;14.70;99.90;;;;;;5042721;28;20417;-71
2023/10/20 00:46:53;;;;;;;12.70;11.60;;;14.70;99.90;;;;;;5042607;28;20791;-71
2023/10/20 00:49:20;;;;;;;13.30;12.20;;;14.70;99.90;;;;;;5043572;28;20768;-71
2023/10/20 00:51:47;;;;;;;12.48;11.35;;;14.70;99.90;;;;;;5043384;28;20767;-72
2023/10/20 00:54:16;;;;;;;13.20;12.00;;;14.70;99.90;;;;;;5041759;28;20424;-71
2023/10/20 00:56:43;;;;;;;14.15;12.75;;;14.70;99.90;;;;;;5042771;28;20787;-71
2023/10/20 00:59:10;;;;;;;14.20;13.00;;;14.70;99.90;;;;;;5042158;28;20413;-72
2023/10/20 01:01:37;;;;;;;13.18;11.95;;;14.70;99.90;;;;;;5042071;28;20434;-72
2023/10/20 01:04:06;;;;;;;13.87;12.67;;;14.70;99.90;;;;;;5044403;28;20437;-71
2023/10/20 01:06:33;;;;;;;13.85;12.68;;;14.70;99.90;;;;;;5043242;28;20920;-72
2023/10/20 01:09:00;;;;;;;14.97;13.47;;;14.70;99.90;;;;;;5041486;28;20648;-71
2023/10/20 01:11:27;;;;;;;13.82;12.63;;;14.70;99.90;;;;;;5041088;28;20429;-71
2023/10/20 01:13:54;;;;;;;13.73;12.43;;;14.70;99.90;;;;;;5047007;28;20452;-71
2023/10/20 01:16:20;;;;;;;14.50;13.10;;;14.60;99.90;;;;;;5042349;28;20962;-71
2023/10/20 01:18:47;;;;;;;13.38;12.23;;;14.70;99.90;;;;;;5046391;28;20465;-71
2023/10/20 01:21:15;;;;;;;14.27;13.07;;;14.70;99.90;;;;;;5046349;28;20437;-71
2023/10/20 01:23:42;;;;;;;13.70;12.43;;;14.70;99.90;;;;;;5045937;28;20530;-71
2023/10/20 01:26:10;;;;;;;13.80;12.50;;;14.70;99.90;;;;;;5046486;28;20421;-71
2023/10/20 01:28:37;;;;;;;13.40;12.20;;;14.70;99.90;;;;;;5045213;28;20914;-72
2023/10/20 01:31:04;;;;;;;12.32;11.32;;;14.80;99.90;;;;;;5044137;28;20519;-71
2023/10/20 01:33:31;;;;;;;12.90;11.80;;;14.70;99.90;;;;;;5043577;28;20977;-71
2023/10/20 01:35:57;;;;;;;12.80;11.70;;;14.80;99.90;;;;;;5045999;28;20489;-71
2023/10/20 01:38:24;;;;;;;12.50;11.40;;;14.80;99.90;;;;;;5044955;28;20417;-71
2023/10/20 01:40:51;;;;;;;12.55;11.45;;;14.80;99.90;;;;;;5044342;28;20448;-71
2023/10/20 01:43:19;;;;;;;12.97;11.70;;;14.80;99.90;;;;;;5043661;28;20443;-71
2023/10/20 01:45:46;;;;;;;12.32;11.23;;;14.80;99.90;;;;;;5044995;28;20941;-72
2023/10/20 01:48:12;;;;;;;12.35;11.30;;;14.80;99.90;;;;;;5047608;28;20428;-71
2023/10/20 01:50:39;;;;;;;11.27;10.20;;;14.80;99.90;;;;;;5047895;28;20919;-71
2023/10/20 01:53:06;;;;;;;12.35;11.07;;;14.80;99.90;;;;;;5046367;28;20436;-71
2023/10/20 01:55:34;;;;;;;10.90;9.90;;;14.80;99.90;;;;;;5044915;28;20425;-71
2023/10/20 01:58:00;;;;;;;10.60;9.70;;;14.80;99.90;;;;;;5046614;28;20505;-71
2023/10/20 02:00:28;;;;;;;11.00;9.90;;;14.80;99.90;;;;;;5042332;28;20483;-71
2023/10/20 02:02:55;;;;;;;11.37;10.20;;;14.80;99.90;;;;;;5045342;28;20880;-71
2023/10/20 02:05:22;;;;;;;10.80;9.70;;;14.80;99.90;;;;;;5045601;28;20432;-72
2023/10/20 02:07:49;;;;;;;9.70;8.90;;;14.80;99.90;;;;;;5051355;28;20433;-71
2023/10/20 02:10:16;;;;;;;10.00;9.10;;;14.80;99.90;;;;;;5048634;28;20436;-71
2023/10/20 02:12:43;;;;;;;9.40;8.60;;;14.80;99.90;;;;;;5046529;28;20461;-71
2023/10/20 02:15:10;;;;;;;8.70;8.00;;;14.80;99.90;;;;;;5048976;28;20810;-71
2023/10/20 02:17:38;;;;;;;9.25;8.35;;;14.80;99.90;;;;;;5043986;28;20428;-71
2023/10/20 02:20:06;;;;;;;8.73;7.82;;;14.80;99.90;;;;;;5044148;28;20546;-71
2023/10/20 02:22:33;;;;;;;8.57;7.78;;;14.80;99.90;;;;;;5044068;28;20448;-71
2023/10/20 02:25:00;;;;;;;9.15;8.35;;;14.80;99.90;;;;;;5044567;28;20468;-71
2023/10/20 02:27:28;;;;;;;8.30;7.60;;;14.80;99.90;;;;;;5049819;28;20403;-70
2023/10/20 02:29:55;;;;;;;7.80;7.20;;;14.80;99.90;;;;;;5044438;28;20461;-70
2023/10/20 02:32:22;;;;;;;7.60;6.90;;;14.80;99.90;;;;;;5041345;28;20887;-70
2023/10/20 02:34:50;;;;;;;7.20;6.60;;;14.80;99.90;;;;;;5042580;28;20426;-70
2023/10/20 02:37:17;;;;;;;7.40;6.80;;;14.80;99.90;;;;;;5044983;28;20421;-70
2023/10/20 02:39:43;;;;;;;7.10;6.50;;;14.80;99.90;;;;;;5043668;28;20436;-70
2023/10/20 02:42:11;;;;;;;7.53;6.73;;;14.80;99.90;;;;;;5043282;28;20918;-70
2023/10/20 02:44:38;;;;;;;6.88;6.28;;;14.80;99.90;;;;;;5045365;28;20524;-70
2023/10/20 02:47:05;;;;;;;8.80;6.63;;;14.80;99.90;;;;;;5044411;28;20474;-70
2023/10/20 02:49:32;;;;;;;6.50;6.00;;;14.80;99.90;;;;;;5045334;28;20420;-70
2023/10/20 02:52:00;;;;;;;6.20;5.70;;;14.80;99.90;;;;;;5044441;28;21006;-70
2023/10/20 02:54:27;;;;;;;5.53;5.05;;;14.80;99.90;;;;;;5043579;28;20439;-70
2023/10/20 02:56:56;;;;;;;5.65;5.15;;;14.80;99.90;;;;;;5043976;28;20437;-70
2023/10/20 02:59:23;;;;;;;5.68;5.18;;;14.80;99.90;;;;;;5044829;28;20856;-70
2023/10/20 03:01:49;;;;;;;5.30;4.90;;;14.80;99.90;;;;;;5043000;28;20444;-70
2023/10/20 03:04:17;;;;;;;5.32;4.82;;;14.80;99.90;;;;;;5044943;28;20422;-70
2023/10/20 03:06:43;;;;;;;5.60;5.10;;;14.80;99.90;;;;;;5044603;28;20574;-70
2023/10/20 03:09:13;;;;;;;5.43;4.93;;;14.80;99.90;;;;;;5044631;28;20452;-70
2023/10/20 03:11:40;;;;;;;5.50;5.00;;;14.80;99.90;;;;;;5044880;28;20433;-70
2023/10/20 03:14:07;;;;;;;5.57;4.90;;;14.80;99.90;;;;;;5046098;28;20433;-70
2023/10/20 03:16:37;;;;;;;4.80;4.40;;;14.80;99.90;;;;;;5046937;28;20430;-70
2023/10/20 03:19:05;;;;;;;5.65;5.05;;;14.80;99.90;;;;;;5045427;28;20421;-70
2023/10/20 03:21:32;;;;;;;4.65;4.25;;;14.80;99.90;;;;;;5044938;28;20843;-70
2023/10/20 03:23:58;;;;;;;4.90;4.05;;;14.90;99.90;;;;;;5043651;28;20456;-70
2023/10/20 03:26:26;;;;;;;4.70;4.20;;;14.90;99.90;;;;;;5044783;28;20425;-70
2023/10/20 03:28:53;;;;;;;4.60;4.20;;;14.90;99.90;;;;;;5044664;28;20876;-70
2023/10/20 03:31:20;;;;;;;4.30;3.90;;;14.90;99.90;;;;;;5043653;28;20429;-70
2023/10/20 03:33:48;;;;;;;4.90;4.50;;;14.90;99.90;;;;;;5042941;28;20445;-70
2023/10/20 03:36:15;;;;;;;4.55;4.15;;;14.90;99.90;;;;;;5039212;28;20430;-70
2023/10/20 03:38:42;;;;;;;4.70;4.20;;;14.90;99.90;;;;;;5043920;28;20495;-70
2023/10/20 03:41:11;;;;;;;4.93;4.53;;;15.00;99.90;;;;;;5044038;28;20469;-70
2023/10/20 03:43:39;;;;;;;4.90;4.50;;;14.90;99.90;;;;;;5047404;28;20427;-69
2023/10/20 03:46:06;;;;;;;4.68;4.10;;;14.90;99.90;;;;;;5042994;28;20481;-69
2023/10/20 03:48:34;;;;;;;5.00;4.60;;;14.90;99.90;;;;;;5043129;28;20820;-70
2023/10/20 03:51:04;;;;;;;5.10;4.70;;;14.90;99.90;;;;;;5043805;28;20441;-70
2023/10/20 03:53:41;;;;;;;5.30;4.85;;;14.90;99.90;;;;;;5042795;28;20435;-70
2023/10/20 03:56:08;;;;;;;4.60;4.20;;;14.90;99.90;;;;;;5042597;28;20429;-70
2023/10/20 03:58:35;;;;;;;4.60;4.20;;;14.90;99.90;;;;;;5043099;28;20892;-70
2023/10/20 04:01:06;;;;;;;5.50;5.00;;;14.90;99.90;;;;;;5042693;28;20459;-70
2023/10/20 04:03:33;;;;;;;5.13;4.70;;;14.90;99.90;;;;;;5040719;28;20760;-70
2023/10/20 04:06:01;;;;;;;4.80;4.40;;;14.90;99.90;;;;;;5041073;28;20436;-70
2023/10/20 04:08:28;;;;;;;5.20;4.80;;;14.90;99.90;;;;;;5041660;28;20513;-69
2023/10/20 04:10:57;;;;;;;5.10;4.70;;;14.90;99.90;;;;;;5041633;28;20440;-70
2023/10/20 04:13:25;;;;;;;4.93;4.53;;;14.90;99.90;;;;;;5043044;28;20800;-70
2023/10/20 04:15:53;;;;;;;5.47;4.97;;;14.90;99.90;;;;;;5042800;28;20440;-70
2023/10/20 04:18:22;;;;;;;5.15;4.75;;;14.90;99.90;;;;;;5041951;28;20440;-70
2023/10/20 04:20:49;;;;;;;5.70;5.20;;;14.90;99.90;;;;;;5046519;28;20594;-70
2023/10/20 04:23:16;;;;;;;5.80;5.30;;;14.90;99.90;;;;;;5042560;28;20471;-70
2023/10/20 04:25:52;;;;;;;6.32;5.72;;;14.80;99.90;;;;;;5043244;28;20433;-70
2023/10/20 04:28:20;;;;;;;6.18;5.57;;;14.80;99.90;;;;;;5043386;28;20580;-70
2023/10/20 04:41:55;;;;;;;7.05;6.35;;;14.80;99.90;;;;;;5041457;28;20440;-69
2023/10/20 04:50:23;;;;;;;7.40;6.80;;;14.70;99.90;;;;;;5042112;28;20999;-69
2023/10/20 04:58:47;;;;;;;7.00;6.47;;;14.70;99.90;;;;;;5035806;28;20417;-69
2023/10/20 05:01:25;;;;;;;6.72;6.13;;;14.70;99.90;;;;;;5041753;28;20957;-69
2023/10/20 05:03:57;;;;;;;6.03;5.53;;;14.70;99.90;;;;;;5040467;28;20425;-69
2023/10/20 05:06:40;;;;;;;6.53;5.90;;;14.60;99.90;;;;;;5043576;28;20429;-69
2023/10/20 05:09:09;;;;;;;6.90;6.20;;;14.60;99.90;;;;;;5037891;28;20953;-69
2023/10/20 05:11:35;;;;;;;6.45;5.68;;;14.60;99.90;;;;;;5043202;28;20456;-70
2023/10/20 05:14:02;;;;;;;5.75;5.25;;;14.60;99.90;;;;;;5046549;28;20442;-68
2023/10/20 05:16:32;;;;;;;6.23;5.60;;;14.60;99.90;;;;;;5044245;28;20564;-69
2023/10/20 05:19:00;;;;;;;5.78;5.20;;;14.60;99.90;;;;;;5042887;28;20441;-70
2023/10/20 05:21:29;;;;;;;6.28;5.70;;;14.60;99.90;;;;;;5041802;28;20437;-69
2023/10/20 05:23:55;;;;;;;5.20;4.80;;;14.60;99.90;;;;;;5045873;28;20886;-69
2023/10/20 05:26:23;;;;;;;6.30;5.70;;;14.60;99.90;;;;;;5042722;28;20436;-69
2023/10/20 05:28:50;;;;;;;5.75;5.25;;;14.60;99.90;;;;;;5041954;28;20435;-69
2023/10/20 05:31:22;;;;;;;5.68;5.20;;;14.60;99.90;;;;;;5044021;28;20498;-69
2023/10/20 05:33:49;;;;;;;5.43;4.93;;;14.60;99.90;;;;;;5040964;28;20489;-69
2023/10/20 05:36:16;;;;;;;5.65;5.13;;;14.60;99.90;;;;;;5043458;28;20429;-69
2023/10/20 05:38:44;;;;;;;6.07;5.50;;;14.50;99.90;;;;;;5054245;28;20846;-69
2023/10/20 05:41:11;;;;;;;5.45;4.75;;;14.60;99.90;;;;;;5041961;28;20433;-69
2023/10/20 05:43:38;;;;;;;5.20;4.70;;;14.50;99.90;;;;;;5048841;28;20472;-69
2023/10/20 05:46:06;;;;;;;5.15;4.65;;;14.50;99.90;;;;;;5043764;28;20417;-69
2023/10/20 05:48:32;;;;;;;4.70;4.30;;;14.50;99.90;;;;;;5048506;28;20497;-69
2023/10/20 05:50:59;;;;;;;6.57;4.97;;;14.50;99.90;;;;;;5042560;28;20425;-69
2023/10/20 05:53:26;;;;;;;5.20;4.70;;;14.50;99.90;;;;;;5048345;28;20419;-69
2023/10/20 05:55:54;;;;;;;4.78;4.38;;;14.50;99.90;;;;;;5044512;28;20452;-69
2023/10/20 05:58:22;;;;;;;4.70;4.00;;;14.50;99.90;;;;;;5050792;28;20409;-69
2023/10/20 06:00:48;;;;;;;4.60;4.20;;;14.50;99.90;;;;;;5047714;28;20669;-69
2023/10/20 06:03:15;;;;;;;4.45;3.95;;;14.50;99.90;;;;;;5051388;28;20432;-69
2023/10/20 06:05:42;;;;;;;6.60;5.00;;;14.50;99.90;;;;;;5045982;28;20409;-69
2023/10/20 06:08:09;;;;;;;5.50;4.20;;;14.50;99.90;;;;;;5046559;28;20409;-69
2023/10/20 06:10:36;;;;;;;5.15;4.65;;;14.50;99.90;;;;;;5045088;28;20448;-71
2023/10/20 06:13:04;;;;;;;5.03;4.53;;;14.50;99.90;;;;;;5045638;28;20436;-71
2023/10/20 06:15:32;;;;;;;4.80;4.30;;;14.50;99.90;;;;;;5046431;28;20512;-71
2023/10/20 06:17:59;;;;;;;4.88;4.38;;;14.50;99.90;;;;;;5047202;28;20556;-71
2023/10/20 06:20:25;;;;;;;5.10;4.60;;;14.50;99.90;;;;;;5052850;28;20415;-72
2023/10/20 06:22:52;;;;;;;5.60;5.00;;;14.50;99.90;;;;;;5046401;28;20457;-71
2023/10/20 06:25:19;;;;;;;5.40;4.90;;;14.50;99.90;;;;;;5045845;28;20917;-71
2023/10/20 06:27:46;;;;;;;5.50;5.00;;;14.40;99.90;;;;;;5045187;28;20417;-71
2023/10/20 06:30:21;;;;;;;5.90;5.30;;;14.50;99.90;;;;;;5046184;28;20547;-71
2023/10/20 06:32:56;;;;;;;5.90;5.40;;;14.50;99.90;;;;;;5043509;28;20807;-71
2023/10/20 06:35:32;;;;;;;6.20;5.70;;;14.40;99.90;;;;;;5046025;28;20476;-71
2023/10/20 06:38:11;;;;;;;6.38;5.38;;;14.40;99.90;;;;;;5045776;28;20516;-71
2023/10/20 06:40:39;;;;;;;6.60;6.03;;;14.40;99.90;;;;;;5044569;28;20862;-71
2023/10/20 06:43:06;;;;;;;6.82;6.13;;;14.40;99.90;;;;;;5045268;28;20447;-71
2023/10/20 06:45:34;;;;;;;7.18;6.57;;;14.40;99.90;;;;;;5044891;28;20440;-71
2023/10/20 06:48:00;;;;;;;7.67;6.97;;;14.40;99.90;;;;;;5044606;28;20521;-71
2023/10/20 06:50:27;;;;;;;8.85;7.40;;;14.40;99.90;;;;;;5040270;28;20814;-71
2023/10/20 06:52:54;;;;;;;8.35;7.63;;;14.40;99.90;;;;;;5049513;28;20409;-71
2023/10/20 06:55:21;;;;;;;8.80;8.00;;;14.40;99.90;;;;;;5044977;28;20807;-71
2023/10/20 06:57:48;;;;;;;8.80;8.00;;;14.40;99.90;;;;;;5044509;28;20444;-71
2023/10/20 07:00:17;;;;;;;10.93;9.30;;;14.40;99.90;;;;;;5044902;28;20490;-71
2023/10/20 07:02:46;;;;;;;10.98;9.98;;;14.40;99.90;;;;;;5044043;28;20514;-71
2023/10/20 07:05:14;;;;;;;10.90;9.90;;;14.40;99.90;;;;;;5045426;28;20539;-70
2023/10/20 07:07:41;;;;;;;11.23;10.23;;;14.40;99.90;;;;;;5044345;28;20414;-71
2023/10/20 07:10:10;;;;;;;11.10;10.10;;;14.40;99.90;;;;;;5044302;28;20413;-71
2023/10/20 07:12:37;;;;;;;11.00;9.90;;;14.40;99.90;;;;;;5044786;28;20433;-71
2023/10/20 07:15:05;;;;;;;11.48;10.38;;;14.30;99.90;;;;;;5045424;28;20863;-71
2023/10/20 07:17:32;;;;;;;13.80;11.10;;;14.30;99.90;;;;;;5044960;28;20725;-71
2023/10/20 07:20:00;;;;;;;12.70;10.80;;;14.30;99.90;;;;;;5047338;28;20425;-70
2023/10/20 07:22:28;;;;;;;12.57;11.40;;;14.30;99.90;;;;;;5045269;28;20433;-70
2023/10/20 07:24:55;;;;;;;12.68;11.48;;;14.30;99.90;;;;;;5046528;28;20425;-69
2023/10/20 07:27:22;;;;;;;12.93;11.55;;;14.30;99.90;;;;;;5043375;28;20436;-69
2023/10/20 07:29:49;;;;;;;13.10;11.90;;;14.30;99.90;;;;;;5044887;28;20410;-69
2023/10/20 07:32:17;;;;;;;13.40;12.00;;;14.30;99.90;;;;;;5046174;28;20428;-70
2023/10/20 07:34:44;;;;;;;13.45;12.15;;;14.30;99.90;;;;;;5043576;28;20432;-72
2023/10/20 07:37:12;;;;;;;13.23;11.93;;;14.40;99.90;;;;;;5043130;28;20452;-72
2023/10/20 07:39:38;;;;;;;13.60;12.20;;;14.30;99.90;;;;;;5080515;22;20449;-72
2023/10/20 07:42:05;;;;;;;13.15;11.95;;;14.30;99.90;;;;;;5083182;28;20788;-72
2023/10/20 07:44:32;;;;;;;14.10;12.77;;;14.40;99.90;;;;;;5088509;28;20429;-72
2023/10/20 07:46:59;;;;;;;13.45;12.15;;;14.40;99.90;;;;;;5080497;28;20428;-72
2023/10/20 07:49:25;;;;;;;13.60;12.27;;;14.30;99.90;;;;;;5087431;28;20421;-72
2023/10/20 07:51:53;;;;;;;14.70;13.20;;;14.30;99.90;;;;;;5084970;28;20945;-72
2023/10/20 07:54:21;;;;;;;14.90;13.43;;;14.30;99.90;;;;;;5082159;28;20799;-73
2023/10/20 07:56:47;;;;;;;13.77;12.38;;;14.30;99.90;;;;;;5076318;28;20435;-72
2023/10/20 07:59:14;;;;;;;13.93;12.53;;;14.40;99.90;;;;;;5090643;28;20402;-73
2023/10/20 08:01:41;;;;;;;14.02;12.70;;;14.40;99.90;;;;;;5089146;28;20907;-72
2023/10/20 08:04:08;;;;;;;13.30;12.20;;;14.40;99.90;;;;;;5084154;28;20435;-72
2023/10/20 08:06:35;;;;;;;14.50;13.00;;;14.50;99.90;;;;;;5102941;28;20463;-71
2023/10/20 08:09:03;;;;;;;14.35;13.05;;;14.50;99.90;;;;;;5089633;28;20430;-71
2023/10/20 08:11:31;;;;;;;13.55;12.30;;;14.50;99.90;;;;;;5081137;28;20830;-73
2023/10/20 08:13:58;;;;;;;13.75;12.45;;;14.50;99.90;;;;;;5075597;28;20453;-72
2023/10/20 08:16:25;;;;;;;13.00;11.90;;;14.50;99.90;;;;;;5084040;28;20438;-72
2023/10/20 08:18:52;;;;;;;12.75;11.55;;;14.50;99.90;;;;;;5104548;28;20795;-73
2023/10/20 08:21:19;;;;;;;13.80;12.45;;;14.50;99.90;;;;;;5097058;28;20480;-72
2023/10/20 08:23:46;;;;;;;13.00;11.90;;;14.50;99.90;;;;;;5086541;28;20427;-72
2023/10/20 08:26:19;;;;;;;13.27;11.98;;;14.50;99.90;;;;;;5098047;28;20469;-71
2023/10/20 08:28:47;;;;;;;13.10;12.00;;;14.50;99.90;;;;;;5088914;28;20443;-72
2023/10/20 08:31:16;;;;;;;13.70;12.50;;;14.50;99.90;;;;;;5089031;28;20465;-74
2023/10/20 08:33:43;;;;;;;13.80;12.60;;;14.50;99.90;;;;;;5089068;28;20466;-74
2023/10/20 08:36:12;;;;;;;15.05;13.48;;;14.50;99.90;;;;;;5090995;28;20426;-74
2023/10/20 08:38:40;;;;;;;14.20;12.70;;;14.50;99.90;;;;;;5096991;28;20906;-72
2023/10/20 08:41:11;;;;;;;14.00;12.70;;;14.50;99.90;;;;;;5074560;28;20927;-73
2023/10/20 08:43:40;;;;;;;13.73;12.32;;;14.50;99.90;;;;;;5091560;28;20632;-74
2023/10/20 08:46:09;;;;;;;14.00;12.70;;;14.50;99.90;;;;;;5093510;28;20901;-73
2023/10/20 08:48:37;;;;;;;14.18;12.75;;;14.50;99.90;;;;;;5084321;28;20426;-72
2023/10/20 08:51:05;;;;;;;14.65;13.20;;;14.50;99.90;;;;;;5083993;28;20452;-73
2023/10/20 08:53:33;;;;;;;15.38;13.75;;;14.50;99.90;;;;;;5088247;28;20417;-72
2023/10/20 08:56:01;;;;;;;14.30;12.93;;;14.50;99.90;;;;;;5091446;28;20492;-74
2023/10/20 08:58:29;;;;;;;14.80;13.30;;;14.40;99.90;;;;;;5099198;28;20907;-72
2023/10/20 09:00:57;;;;;;;15.40;13.80;;;14.40;99.90;;;;;;5095657;28;20447;-71
2023/10/20 09:03:26;;;;;;;15.23;13.73;;;14.50;99.90;;;;;;5085693;28;21084;-72
2023/10/20 09:05:53;;;;;;;14.27;12.88;;;14.40;99.90;;;;;;5093665;28;20408;-72
2023/10/20 09:08:21;;;;;;;14.40;13.20;;;14.50;99.90;;;;;;5102799;28;20431;-72
2023/10/20 09:10:49;;;;;;;14.73;13.40;;;14.50;99.90;;;;;;5088978;28;20417;-71
2023/10/20 09:13:15;;;;;;;15.18;13.68;;;14.50;99.90;;;;;;5089838;28;20678;-73
2023/10/20 09:15:42;;;;;;;14.80;13.40;;;14.50;99.90;;;;;;5098653;28;20413;-71
2023/10/20 09:18:10;;;;;;;15.07;13.68;;;14.50;99.90;;;;;;5091976;28;20446;-70
2023/10/20 09:20:39;;;;;;;14.23;12.82;;;14.50;99.90;;;;;;5090193;28;20911;-70
2023/10/20 09:23:10;;;;;;;14.73;13.25;;;14.50;99.90;;;;;;5084545;28;20807;-72
2023/10/20 09:25:36;;;;;;;14.70;13.30;;;14.50;99.90;;;;;;5098641;28;20412;-71
2023/10/20 09:28:04;;;;;;;15.43;13.93;;;14.50;99.90;;;;;;5097418;28;20422;-70
2023/10/20 09:30:32;;;;;;;15.80;14.10;;;14.50;99.90;;;;;;5116498;28;20470;-69
2023/10/20 09:32:59;;;;;;;15.63;14.02;;;14.50;99.90;;;;;;5107987;28;20496;-73
2023/10/20 09:35:26;;;;;;;14.80;13.40;;;14.50;99.90;;;;;;5094450;28;20434;-71
2023/10/20 09:37:55;;;;;;;13.77;12.52;;;14.60;99.90;;;;;;5100382;28;20420;-71
2023/10/20 09:40:23;;;;;;;14.25;12.90;;;14.60;99.90;;;;;;5103028;28;20468;-72
2023/10/20 09:43:02;;;;;;;14.15;12.85;;;14.50;99.90;;;;;;5094548;28;20570;-70
2023/10/20 09:45:33;;;;;;;15.88;14.27;;;14.50;99.90;;;;;;5092582;28;20406;-72
2023/10/20 09:48:04;;;;;;;16.30;14.68;;;14.50;99.90;;;;;;5103773;28;20440;-72
2023/10/20 09:50:32;;;;;;;15.48;13.85;;;14.60;99.90;;;;;;5101148;28;20777;-72
2023/10/20 09:53:02;;;;;;;16.73;15.15;;;14.50;99.90;;;;;;5095852;28;20435;-70
2023/10/20 09:55:29;;;;;;;15.05;13.75;;;14.60;99.90;;;;;;5099470;28;20416;-70
2023/10/20 09:57:56;;;;;;;14.52;13.15;;;14.60;99.90;;;;;;5100094;28;20796;-72
2023/10/20 10:00:31;;;;;;;14.55;13.20;;;14.60;99.90;;;;;;5109228;28;20466;-72
2023/10/20 10:02:59;;;;;;;14.20;12.90;;;14.60;99.90;;;;;;5096478;28;20407;-72
2023/10/20 10:05:26;;;;;;;14.00;12.70;;;14.60;99.90;;;;;;5105654;28;20998;-70
2023/10/20 10:08:06;;;;;;;15.23;13.18;;;14.60;99.90;;;;;;5103337;28;20404;-73
2023/10/20 10:10:33;;;;;;;13.48;12.18;;;14.60;99.90;;;;;;5106539;28;20427;-71
2023/10/20 10:13:04;;;;;;;15.77;14.25;;;14.70;99.90;;;;;;5104578;28;20438;-73
2023/10/20 10:15:41;;;;;;;13.23;12.00;;;14.70;99.90;;;;;;5110915;28;20454;-72
2023/10/20 10:18:10;;;;;;;13.80;12.60;;;14.70;99.90;;;;;;5097965;28;21033;-72
2023/10/20 10:20:45;;;;;;;14.05;12.70;;;14.70;99.90;;;;;;5105836;28;20473;-72
2023/10/20 10:23:14;;;;;;;14.07;12.77;;;14.70;99.90;;;;;;5100033;28;20421;-71
2023/10/20 10:25:43;;;;;;;13.40;12.15;;;14.70;99.90;;;;;;5095127;28;20428;-71
2023/10/20 10:28:14;;;;;;;13.52;12.23;;;14.70;99.90;;;;;;5083473;28;20501;-71
2023/10/20 10:30:42;;;;;;;13.20;12.00;;;14.80;99.90;;;;;;5090580;28;20409;-71
2023/10/20 10:33:09;;;;;;;13.70;12.30;;;14.80;99.90;;;;;;5096222;28;20435;-71
2023/10/20 10:35:38;;;;;;;14.98;13.57;;;14.80;99.90;;;;;;5103932;28;20412;-70
2023/10/20 10:38:06;;;;;;;12.68;11.57;;;14.90;99.90;;;;;;5103811;28;20420;-70
2023/10/20 10:40:34;;;;;;;12.77;11.57;;;15.00;99.90;;;;;;5101824;28;20438;-71
2023/10/20 10:43:01;;;;;;;12.18;11.07;;;15.10;99.90;;;;;;5085292;28;20859;-71
2023/10/20 10:45:30;;;;;;;12.10;11.00;;;15.00;99.90;;;;;;5090453;28;20419;-73
2023/10/20 10:48:08;;;;;;;12.00;11.00;;;15.00;99.90;;;;;;5106345;28;20412;-72
2023/10/20 10:50:37;;;;;;;11.90;10.70;;;15.10;99.90;;;;;;5094994;28;20554;-71
2023/10/20 10:53:05;;;;;;;10.68;9.57;;;15.10;99.90;;;;;;5103336;28;20905;-71
2023/10/20 10:55:34;;;;;;;12.37;11.27;;;15.00;99.90;;;;;;5090454;28;20443;-70
2023/10/20 10:58:02;;;;;;;11.93;10.82;;;15.00;99.90;;;;;;5099818;28;20477;-72
2023/10/20 11:00:29;;;;;;;11.80;10.70;;;15.00;99.90;;;;;;5101672;28;20766;-72
2023/10/20 11:02:57;;;;;;;12.35;11.25;;;15.00;99.90;;;;;;5095019;28;20429;-72
2023/10/20 11:05:25;;;;;;;11.95;10.90;;;15.00;99.90;;;;;;5089105;28;20475;-70
2023/10/20 11:07:56;;;;;;;11.65;10.70;;;15.00;99.90;;;;;;5105088;28;20429;-72
2023/10/20 11:10:26;;;;;;;11.52;10.52;;;15.00;99.90;;;;;;5089869;28;20409;-69
2023/10/20 11:12:53;;;;;;;11.68;10.60;;;14.90;99.90;;;;;;5091612;28;20445;-71
2023/10/20 11:15:21;;;;;;;12.23;10.90;;;14.90;99.90;;;;;;5104779;28;20404;-72
2023/10/20 11:17:49;;;;;;;11.82;10.63;;;14.90;99.90;;;;;;5100639;28;20921;-71
2023/10/20 11:20:20;;;;;;;11.03;10.13;;;14.80;99.90;;;;;;5096495;28;20522;-72
2023/10/20 11:22:52;;;;;;;11.50;10.55;;;14.80;99.90;;;;;;5102213;28;20501;-71
2023/10/20 11:25:19;;;;;;;11.98;10.98;;;14.80;99.90;;;;;;5110447;28;20412;-70
2023/10/20 11:27:53;;;;;;;12.57;11.27;;;14.90;99.90;;;;;;5088331;28;20500;-70
2023/10/20 11:30:25;;;;;;;11.27;10.38;;;14.90;99.90;;;;;;5099025;28;20444;-70
2023/10/20 11:32:53;;;;;;;11.00;10.10;;;14.90;99.90;;;;;;5094050;28;20448;-69
2023/10/20 11:35:21;;;;;;;11.00;10.10;;;14.80;99.90;;;;;;5096274;28;20471;-70
2023/10/20 11:37:48;;;;;;;11.00;10.10;;;14.80;99.90;;;;;;5102372;28;20441;-73
2023/10/20 11:40:15;;;;;;;10.90;9.90;;;14.80;99.90;;;;;;5103222;28;20425;-72
2023/10/20 11:42:42;;;;;;;10.90;9.90;;;14.80;99.90;;;;;;5098093;28;20435;-71
2023/10/20 11:45:11;;;;;;;10.50;9.60;;;14.90;99.90;;;;;;5101759;28;20405;-71
2023/10/20 11:47:39;;;;;;;10.13;9.23;;;14.90;99.90;;;;;;5104698;28;20408;-70
2023/10/20 11:50:08;;;;;;;10.35;9.45;;;14.90;99.90;;;;;;5102829;28;20408;-71
2023/10/20 11:52:36;;;;;;;10.35;9.45;;;14.90;99.90;;;;;;5098667;28;20962;-71
2023/10/20 11:55:03;;;;;;;9.93;9.10;;;14.90;99.90;;;;;;5099723;28;20422;-70
2023/10/20 11:57:30;;;;;;;9.40;8.60;;;14.90;99.90;;;;;;5096476;28;20424;-71
2023/10/20 11:59:57;;;;;;;9.95;9.05;;;14.90;99.90;;;;;;5098721;28;20404;-71
2023/10/20 12:02:24;;;;;;;9.35;8.65;;;14.90;99.90;;;;;;5093428;28;20404;-73
2023/10/20 12:04:52;;;;;;;9.45;8.75;;;14.90;99.90;;;;;;5103508;28;20414;-72
2023/10/20 12:07:19;;;;;;;9.02;8.30;;;14.90;99.90;;;;;;5106030;28;20410;-72
2023/10/20 12:09:46;;;;;;;9.43;8.73;;;14.80;99.90;;;;;;5101230;28;20487;-72
2023/10/20 12:12:12;;;;;;;9.45;8.75;;;14.90;99.90;;;;;;5087291;28;20426;-73
2023/10/20 12:14:39;;;;;;;9.90;9.10;;;14.90;99.90;;;;;;5105702;28;20875;-72
2023/10/20 12:17:06;;;;;;;9.60;8.80;;;14.90;99.90;;;;;;5082695;28;20423;-73
2023/10/20 12:19:33;;;;;;;9.10;8.30;;;14.90;99.90;;;;;;5092785;28;20430;-71
2023/10/20 12:22:01;;;;;;;10.10;9.20;;;14.90;99.90;;;;;;5110155;28;20471;-71
2023/10/20 12:24:28;;;;;;;9.05;8.25;;;14.90;99.90;;;;;;5094390;28;20423;-71
2023/10/20 12:26:55;;;;;;;9.32;8.52;;;15.00;99.90;;;;;;5100899;28;20440;-72
2023/10/20 12:29:22;;;;;;;8.80;8.10;;;15.00;99.90;;;;;;5093923;28;20799;-71
2023/10/20 12:31:49;;;;;;;8.55;7.85;;;15.00;99.90;;;;;;5105279;28;20430;-70
2023/10/20 12:34:16;;;;;;;9.10;8.30;;;15.10;99.90;;;;;;5099770;28;20446;-72
2023/10/20 12:36:43;;;;;;;8.40;7.70;;;15.10;99.90;;;;;;5089448;28;20409;-73
2023/10/20 12:39:17;;;;;;;9.25;8.45;;;15.20;99.90;;;;;;5083386;28;20419;-70
2023/10/20 12:41:44;;;;;;;9.10;8.30;;;15.20;99.90;;;;;;5103327;28;20441;-68
2023/10/20 12:44:11;;;;;;;8.90;8.20;;;15.20;99.90;;;;;;5118009;28;20404;-67
2023/10/20 12:46:38;;;;;;;9.27;8.48;;;15.20;99.90;;;;;;5079795;28;20424;-68
2023/10/20 12:49:06;;;;;;;8.73;8.13;;;15.20;99.90;;;;;;5086476;28;20431;-69
2023/10/20 12:51:33;;;;;;;8.88;8.07;;;15.20;99.90;;;;;;5087619;28;20754;-69
2023/10/20 12:54:01;;;;;;;8.65;7.95;;;15.20;99.90;;;;;;5092995;28;20940;-70
2023/10/20 12:56:29;;;;;;;9.70;8.90;;;15.20;99.90;;;;;;5118451;28;20423;-71
2023/10/20 12:58:56;;;;;;;8.70;7.90;;;15.30;99.90;;;;;;5083882;28;20422;-72
2023/10/20 13:01:23;;;;;;;9.48;8.68;;;15.20;99.90;;;;;;5081198;28;20443;-69